createdAt,value
2019-05-15T00:00:09.832Z,51.70
2019-05-15T00:01:45.848Z,51.70
2019-05-15T00:03:22.544Z,51.80
2019-05-15T00:04:58.577Z,51.80
2019-05-15T00:06:34.822Z,51.80
2019-05-15T00:08:10.355Z,52.10
2019-05-15T00:09:48.980Z,52.30
2019-05-15T00:11:23.858Z,52.20
2019-05-15T00:13:00.077Z,52.10
2019-05-15T00:14:35.606Z,52.20
2019-05-15T00:16:12.127Z,52.30
2019-05-15T00:17:48.565Z,52.30
2019-05-15T00:19:25.159Z,52.30
2019-05-15T00:21:00.692Z,52.40
2019-05-15T00:22:38.823Z,52.40
2019-05-15T00:24:14.156Z,52.40
2019-05-15T00:25:51.652Z,52.30
2019-05-15T00:27:28.518Z,52.40
2019-05-15T00:29:12.742Z,52.40
2019-05-15T00:30:42.064Z,52.50
2019-05-15T00:32:18.657Z,52.40
2019-05-15T00:33:54.522Z,52.40
2019-05-15T00:35:30.855Z,52.40
2019-05-15T00:37:08.910Z,52.40
2019-05-15T00:38:44.406Z,52.50
2019-05-15T00:40:20.100Z,52.50
2019-05-15T00:41:58.865Z,52.60
2019-05-15T00:43:33.592Z,52.60
2019-05-15T00:45:11.408Z,52.70
2019-05-15T00:46:48.810Z,52.60
2019-05-15T00:48:29.027Z,52.60
2019-05-15T00:50:08.937Z,52.60
2019-05-15T00:51:45.320Z,52.60
2019-05-15T00:53:22.091Z,52.70
2019-05-15T00:54:58.960Z,52.70
2019-05-15T00:56:34.622Z,52.80
2019-05-15T00:58:10.874Z,52.90
2019-05-15T00:59:48.344Z,53.00
2019-05-15T01:01:24.661Z,53.70
2019-05-15T01:03:00.449Z,53.10
2019-05-15T01:04:38.907Z,53.00
2019-05-15T01:06:14.251Z,53.10
2019-05-15T01:07:50.516Z,53.20
2019-05-15T01:09:26.085Z,53.10
2019-05-15T01:11:02.315Z,53.10
2019-05-15T01:12:39.018Z,53.10
2019-05-15T01:14:15.273Z,53.10
2019-05-15T01:15:50.814Z,52.90
2019-05-15T01:17:29.015Z,52.90
2019-05-15T01:19:04.389Z,52.80
2019-05-15T01:20:40.653Z,52.70
2019-05-15T01:22:16.206Z,52.70
2019-05-15T01:23:53.429Z,52.70
2019-05-15T01:25:28.955Z,52.70
2019-05-15T01:27:05.510Z,52.70
2019-05-15T01:28:41.042Z,52.60
2019-05-15T01:30:18.130Z,52.60
2019-05-15T01:31:53.661Z,52.70
2019-05-15T01:33:29.925Z,52.80
2019-05-15T01:35:09.236Z,52.80
2019-05-15T01:36:44.868Z,52.90
2019-05-15T01:38:20.401Z,52.90
2019-05-15T01:39:58.142Z,52.90
2019-05-15T01:41:33.842Z,53.00
2019-05-15T01:43:10.110Z,53.20
2019-05-15T01:44:48.250Z,53.30
2019-05-15T01:46:24.158Z,53.30
2019-05-15T01:47:59.726Z,53.40
2019-05-15T01:49:38.239Z,53.50
2019-05-15T01:51:13.202Z,53.60
2019-05-15T01:52:49.476Z,53.70
2019-05-15T01:54:24.996Z,53.90
2019-05-15T01:56:01.261Z,53.80
2019-05-15T01:57:38.365Z,53.80
2019-05-15T01:59:18.917Z,53.90
2019-05-15T02:00:54.595Z,53.80
2019-05-15T02:02:31.954Z,53.80
2019-05-15T02:04:08.341Z,53.90
2019-05-15T02:05:44.653Z,53.90
2019-05-15T02:07:20.427Z,53.90
2019-05-15T02:08:58.679Z,53.90
2019-05-15T02:10:33.915Z,54.00
2019-05-15T02:12:10.173Z,54.00
2019-05-15T02:13:47.908Z,53.90
2019-05-15T02:15:23.753Z,54.00
2019-05-15T02:16:59.284Z,54.10
2019-05-15T02:18:35.838Z,54.10
2019-05-15T02:20:11.581Z,54.10
2019-05-15T02:21:48.617Z,54.20
2019-05-15T02:23:24.348Z,54.20
2019-05-15T02:25:00.669Z,54.10
2019-05-15T02:26:38.687Z,54.20
2019-05-15T02:28:14.458Z,54.10
2019-05-15T02:29:49.971Z,54.10
2019-05-15T02:31:29.839Z,54.10
2019-05-15T02:33:03.455Z,54.10
2019-05-15T02:34:39.936Z,54.20
2019-05-15T02:36:15.539Z,54.10
2019-05-15T02:37:51.787Z,54.10
2019-05-15T02:39:29.008Z,54.10
2019-05-15T02:41:05.579Z,54.20
2019-05-15T02:42:41.441Z,54.20
2019-05-15T02:44:20.007Z,54.20
2019-05-15T02:45:54.923Z,54.20
2019-05-15T02:47:31.366Z,54.30
2019-05-15T02:49:08.778Z,54.30
2019-05-15T02:50:44.869Z,54.40
2019-05-15T02:52:20.390Z,54.40
2019-05-15T02:53:58.603Z,54.60
2019-05-15T02:55:33.969Z,54.50
2019-05-15T02:57:10.237Z,54.60
2019-05-15T02:58:48.814Z,54.50
2019-05-15T03:00:40.076Z,54.50
2019-05-15T03:02:00.985Z,54.60
2019-05-15T03:03:38.691Z,54.60
2019-05-15T03:05:14.541Z,54.60
2019-05-15T03:06:50.815Z,54.70
2019-05-15T03:08:29.538Z,54.70
2019-05-15T03:10:04.896Z,54.80
2019-05-15T03:11:41.074Z,55.50
2019-05-15T03:13:18.874Z,54.90
2019-05-15T03:14:54.576Z,54.90
2019-05-15T03:16:30.826Z,54.90
2019-05-15T03:18:09.595Z,54.90
2019-05-15T03:19:44.897Z,54.90
2019-05-15T03:21:20.679Z,54.90
2019-05-15T03:22:59.529Z,54.80
2019-05-15T03:24:34.145Z,54.80
2019-05-15T03:26:10.402Z,54.80
2019-05-15T03:27:45.961Z,54.80
2019-05-15T03:29:22.231Z,54.80
2019-05-15T03:32:46.581Z,55.00
2019-05-15T03:34:21.505Z,55.00
2019-05-15T03:35:54.150Z,55.00
2019-05-15T03:37:33.154Z,55.10
2019-05-15T03:39:09.685Z,55.10
2019-05-15T03:40:45.487Z,55.30
2019-05-15T03:42:21.743Z,55.30
2019-05-15T03:43:59.632Z,55.40
2019-05-15T03:45:35.230Z,55.50
2019-05-15T03:47:10.848Z,55.60
2019-05-15T03:48:48.728Z,55.60
2019-05-15T03:50:24.571Z,55.60
2019-05-15T03:52:00.970Z,55.60
2019-05-15T03:53:39.579Z,55.60
2019-05-15T03:55:14.168Z,55.60
2019-05-15T03:56:50.273Z,55.60
2019-05-15T03:58:28.849Z,55.60
2019-05-15T04:00:05.017Z,55.70
2019-05-15T04:01:43.899Z,55.80
2019-05-15T04:03:20.185Z,55.70
2019-05-15T04:05:00.685Z,55.80
2019-05-15T04:06:34.020Z,55.90
2019-05-15T04:08:11.174Z,55.90
2019-05-15T04:09:49.400Z,55.90
2019-05-15T04:11:24.937Z,55.90
2019-05-15T04:13:01.537Z,55.80
2019-05-15T04:14:39.412Z,55.80
2019-05-15T04:16:15.296Z,55.80
2019-05-15T04:17:51.836Z,55.80
2019-05-15T04:19:29.669Z,55.90
2019-05-15T04:21:05.345Z,55.90
2019-05-15T04:22:40.894Z,55.90
2019-05-15T04:24:19.017Z,55.90
2019-05-15T04:25:54.484Z,55.90
2019-05-15T04:27:31.663Z,56.00
2019-05-15T04:29:09.786Z,56.00
2019-05-15T04:30:45.216Z,55.90
2019-05-15T04:32:20.751Z,55.90
2019-05-15T04:33:59.214Z,55.90
2019-05-15T04:35:34.024Z,56.00
2019-05-15T04:37:10.283Z,56.00
2019-05-15T04:38:49.370Z,56.00
2019-05-15T04:40:23.871Z,55.90
2019-05-15T04:41:59.388Z,56.00
2019-05-15T04:43:41.337Z,56.60
2019-05-15T04:45:13.165Z,56.00
2019-05-15T04:46:49.986Z,55.90
2019-05-15T04:48:29.686Z,55.90
2019-05-15T04:50:09.999Z,55.90
2019-05-15T04:51:45.576Z,55.80
2019-05-15T04:53:21.835Z,55.70
2019-05-15T04:55:00.706Z,55.70
2019-05-15T04:56:40.045Z,55.60
2019-05-15T04:58:14.224Z,55.60
2019-05-15T04:59:51.453Z,55.50
2019-05-15T05:01:28.894Z,55.50
2019-05-15T05:03:05.380Z,55.40
2019-05-15T05:04:41.154Z,55.40
2019-05-15T05:06:19.006Z,56.00
2019-05-15T05:07:54.820Z,55.30
2019-05-15T05:09:32.086Z,55.30
2019-05-15T05:11:09.737Z,55.20
2019-05-15T05:12:50.546Z,55.20
2019-05-15T05:14:23.077Z,55.10
2019-05-15T05:15:59.357Z,55.10
2019-05-15T05:17:34.896Z,55.10
2019-05-15T05:19:11.172Z,55.00
2019-05-15T05:20:48.506Z,55.00
2019-05-15T05:22:28.228Z,54.90
2019-05-15T05:24:04.562Z,54.90
2019-05-15T05:25:41.040Z,54.90
2019-05-15T05:27:18.243Z,54.90
2019-05-15T05:28:54.668Z,54.70
2019-05-15T05:30:30.487Z,54.70
2019-05-15T05:32:09.117Z,54.60
2019-05-15T05:33:44.102Z,54.50
2019-05-15T05:35:20.407Z,54.50
2019-05-15T05:36:58.721Z,54.50
2019-05-15T05:38:33.928Z,54.40
2019-05-15T05:40:09.926Z,54.50
2019-05-15T05:41:48.559Z,54.40
2019-05-15T05:43:23.430Z,54.40
2019-05-15T05:44:59.790Z,54.40
2019-05-15T05:46:35.596Z,54.30
2019-05-15T05:48:12.180Z,54.20
2019-05-15T05:49:48.795Z,54.20
2019-05-15T05:51:25.323Z,54.10
2019-05-15T05:53:00.867Z,54.10
2019-05-15T05:54:38.241Z,54.00
2019-05-15T05:56:13.909Z,54.50
2019-05-15T05:57:53.071Z,53.80
2019-05-15T05:59:28.639Z,53.70
2019-05-15T06:01:04.986Z,53.70
2019-05-15T06:02:48.108Z,53.80
2019-05-15T06:04:19.412Z,53.80
2019-05-15T06:05:55.004Z,53.60
2019-05-15T06:07:31.282Z,53.60
2019-05-15T06:09:09.194Z,53.50
2019-05-15T06:10:45.653Z,53.50
2019-05-15T06:12:21.325Z,53.50
2019-05-15T06:13:58.417Z,53.60
2019-05-15T06:15:34.424Z,53.50
2019-05-15T06:17:10.683Z,53.40
2019-05-15T06:18:46.274Z,53.40
2019-05-15T06:20:22.559Z,53.30
2019-05-15T06:22:00.907Z,53.40
2019-05-15T06:23:36.487Z,53.40
2019-05-15T06:25:12.238Z,53.30
2019-05-15T06:26:48.486Z,53.30
2019-05-15T06:28:24.015Z,53.20
2019-05-15T06:30:00.290Z,53.10
2019-05-15T06:31:38.799Z,53.10
2019-05-15T06:33:14.875Z,53.20
2019-05-15T06:34:50.836Z,53.00
2019-05-15T06:36:28.864Z,52.90
2019-05-15T06:38:04.685Z,52.70
2019-05-15T06:39:40.975Z,52.40
2019-05-15T06:41:18.136Z,52.30
2019-05-15T06:42:54.692Z,52.30
2019-05-15T06:44:30.224Z,52.30
2019-05-15T06:46:08.912Z,52.40
2019-05-15T06:47:43.749Z,52.40
2019-05-15T06:49:19.992Z,52.40
2019-05-15T06:50:57.845Z,52.30
2019-05-15T06:52:33.495Z,52.20
2019-05-15T06:54:09.022Z,52.30
2019-05-15T06:55:48.551Z,52.30
2019-05-15T06:57:22.920Z,52.10
2019-05-15T06:58:59.193Z,52.00
2019-05-15T07:00:35.101Z,51.90
2019-05-15T07:02:11.362Z,51.90
2019-05-15T07:03:48.404Z,52.00
2019-05-15T07:05:24.921Z,52.00
2019-05-15T07:07:00.514Z,52.20
2019-05-15T07:08:38.240Z,52.20
2019-05-15T07:10:14.274Z,52.20
2019-05-15T07:11:52.074Z,52.10
2019-05-15T07:13:28.990Z,52.10
2019-05-15T07:15:09.045Z,51.90
2019-05-15T07:16:44.930Z,51.80
2019-05-15T07:18:21.597Z,51.60
2019-05-15T07:19:59.299Z,51.50
2019-05-15T07:21:35.127Z,51.40
2019-05-15T07:23:10.706Z,51.20
2019-05-15T07:24:47.814Z,51.30
2019-05-15T07:26:23.476Z,51.20
2019-05-15T07:28:00.514Z,51.00
2019-05-15T07:29:38.395Z,50.90
2019-05-15T07:31:13.993Z,50.60
2019-05-15T07:32:49.511Z,50.20
2019-05-15T07:34:28.180Z,50.20
2019-05-15T07:36:03.075Z,50.30
2019-05-15T07:37:39.715Z,50.40
2019-05-15T07:39:17.963Z,50.60
2019-05-15T07:41:00.057Z,50.70
2019-05-15T07:42:31.688Z,50.70
2019-05-15T07:44:07.984Z,50.70
2019-05-15T07:45:44.717Z,50.80
2019-05-15T07:47:21.174Z,50.80
2019-05-15T07:48:58.371Z,50.90
2019-05-15T07:50:35.017Z,51.10
2019-05-15T07:52:10.555Z,51.30
2019-05-15T07:53:48.944Z,51.50
2019-05-15T07:55:24.065Z,51.70
2019-05-15T07:57:00.602Z,51.90
2019-05-15T07:58:38.440Z,52.10
2019-05-15T08:00:19.674Z,52.30
2019-05-15T08:01:57.975Z,52.70
2019-05-15T08:03:34.521Z,52.70
2019-05-15T08:05:11.225Z,52.70
2019-05-15T08:06:49.019Z,52.80
2019-05-15T08:08:24.758Z,53.20
2019-05-15T08:10:00.921Z,53.30
2019-05-15T08:11:38.993Z,53.50
2019-05-15T08:13:14.498Z,53.50
2019-05-15T08:14:51.062Z,53.90
2019-05-15T08:16:28.685Z,54.10
2019-05-15T08:18:09.894Z,54.10
2019-05-15T08:19:44.178Z,54.00
2019-05-15T08:21:20.155Z,54.20
2019-05-15T08:22:58.268Z,54.70
2019-05-15T08:24:33.684Z,54.60
2019-05-15T08:26:09.611Z,54.60
2019-05-15T08:27:48.287Z,54.70
2019-05-15T08:29:23.231Z,54.70
2019-05-15T08:30:59.180Z,54.90
2019-05-15T08:32:35.286Z,55.00
2019-05-15T08:34:15.900Z,55.10
2019-05-15T08:35:51.805Z,55.20
2019-05-15T08:37:29.120Z,55.30
2019-05-15T08:39:05.688Z,55.30
2019-05-15T08:40:41.579Z,55.40
2019-05-15T08:42:18.869Z,55.50
2019-05-15T08:43:55.042Z,55.70
2019-05-15T08:45:30.949Z,55.80
2019-05-15T08:47:08.190Z,55.70
2019-05-15T08:48:44.689Z,55.80
2019-05-15T08:50:21.969Z,55.80
2019-05-15T08:51:58.421Z,55.80
2019-05-15T08:53:34.460Z,56.00
2019-05-15T08:55:10.677Z,55.80
2019-05-15T08:56:48.395Z,55.90
2019-05-15T08:58:24.166Z,56.10
2019-05-15T09:00:00.164Z,56.30
2019-05-15T09:01:38.128Z,56.30
2019-05-15T09:03:14.624Z,56.70
2019-05-15T09:04:50.533Z,57.30
2019-05-15T09:06:29.086Z,56.90
2019-05-15T09:08:09.223Z,57.00
2019-05-15T09:09:44.874Z,57.00
2019-05-15T09:11:20.820Z,57.00
2019-05-15T09:12:58.606Z,57.10
2019-05-15T09:14:34.751Z,57.00
2019-05-15T09:16:10.682Z,57.10
2019-05-15T09:17:48.866Z,57.30
2019-05-15T09:19:27.969Z,57.30
2019-05-15T09:21:03.487Z,57.30
2019-05-15T09:22:39.851Z,57.40
2019-05-15T09:24:16.039Z,57.30
2019-05-15T09:25:52.022Z,57.20
2019-05-15T09:27:28.259Z,57.20
2019-05-15T09:29:04.159Z,57.50
2019-05-15T09:30:42.994Z,57.10
2019-05-15T09:32:19.277Z,57.10
2019-05-15T09:33:58.384Z,57.20
2019-05-15T09:35:33.386Z,57.20
2019-05-15T09:37:09.299Z,57.40
2019-05-15T09:38:45.195Z,57.60
2019-05-15T09:40:21.178Z,57.80
2019-05-15T09:41:57.893Z,57.90
2019-05-15T09:43:34.236Z,58.10
2019-05-15T09:45:10.772Z,58.00
2019-05-15T09:46:48.774Z,58.10
2019-05-15T09:48:24.259Z,58.30
2019-05-15T09:50:00.183Z,58.30
2019-05-15T09:51:38.334Z,58.50
2019-05-15T09:53:13.698Z,58.80
2019-05-15T09:54:49.663Z,58.80
2019-05-15T09:56:28.910Z,58.70
2019-05-15T09:58:03.219Z,58.70
2019-05-15T09:59:39.296Z,58.70
2019-05-15T10:01:15.580Z,58.80
2019-05-15T10:02:51.513Z,59.10
2019-05-15T10:04:28.639Z,59.20
2019-05-15T10:06:04.913Z,59.50
2019-05-15T10:07:43.467Z,59.50
2019-05-15T10:09:19.070Z,59.70
2019-05-15T10:10:55.046Z,59.60
2019-05-15T10:12:34.939Z,59.70
2019-05-15T10:14:09.828Z,59.70
2019-05-15T10:15:50.232Z,59.70
2019-05-15T10:17:23.655Z,59.70
2019-05-15T10:18:59.564Z,59.70
2019-05-15T10:20:35.743Z,60.00
2019-05-15T10:22:12.163Z,59.70
2019-05-15T10:23:49.089Z,59.70
2019-05-15T10:25:28.030Z,59.80
2019-05-15T10:27:03.375Z,59.80
2019-05-15T10:28:39.662Z,59.80
2019-05-15T10:30:18.702Z,59.90
2019-05-15T10:31:53.981Z,60.00
2019-05-15T10:33:30.949Z,60.10
2019-05-15T10:35:24.514Z,59.80
2019-05-15T10:36:49.580Z,59.70
2019-05-15T10:38:28.294Z,59.60
2019-05-15T10:40:03.197Z,60.00
2019-05-15T10:41:39.101Z,59.80
2019-05-15T10:43:15.421Z,59.90
2019-05-15T10:44:51.309Z,60.00
2019-05-15T10:46:27.288Z,60.30
2019-05-15T10:48:03.572Z,60.40
2019-05-15T10:49:39.494Z,60.30
2019-05-15T10:51:15.486Z,60.00
2019-05-15T10:52:51.437Z,60.00
2019-05-15T10:54:28.947Z,60.00
2019-05-15T10:56:05.004Z,60.20
2019-05-15T10:57:43.707Z,60.10
2019-05-15T10:59:18.597Z,60.30
2019-05-15T11:00:54.800Z,60.30
2019-05-15T11:02:30.745Z,60.90
2019-05-15T11:04:09.284Z,60.40
2019-05-15T11:05:46.055Z,60.40
2019-05-15T11:07:21.966Z,60.20
2019-05-15T11:08:58.351Z,60.30
2019-05-15T11:10:38.603Z,60.40
2019-05-15T11:12:13.322Z,60.50
2019-05-15T11:13:49.548Z,60.60
2019-05-15T11:15:28.948Z,60.80
2019-05-15T11:17:05.797Z,60.70
2019-05-15T11:18:41.996Z,60.60
2019-05-15T11:20:20.533Z,60.60
2019-05-15T11:21:58.343Z,60.80
2019-05-15T11:23:34.079Z,60.80
2019-05-15T11:25:10.526Z,60.70
2019-05-15T11:26:49.821Z,60.50
2019-05-15T11:28:24.171Z,60.90
2019-05-15T11:30:00.076Z,60.40
2019-05-15T11:31:35.973Z,60.20
2019-05-15T11:33:12.448Z,60.30
2019-05-15T11:34:49.250Z,60.30
2019-05-15T11:36:25.296Z,60.20
2019-05-15T11:38:01.274Z,60.20
2019-05-15T11:39:44.527Z,61.00
2019-05-15T11:41:15.057Z,60.20
2019-05-15T11:42:50.981Z,60.00
2019-05-15T11:44:28.317Z,59.80
2019-05-15T11:46:11.240Z,59.70
2019-05-15T11:47:48.339Z,59.60
2019-05-15T11:49:24.667Z,59.40
2019-05-15T11:51:01.082Z,59.30
2019-05-15T11:52:40.114Z,59.30
2019-05-15T11:54:14.697Z,59.40
2019-05-15T11:55:50.853Z,59.60
2019-05-15T11:57:39.113Z,59.60
2019-05-15T11:59:04.341Z,59.80
2019-05-15T12:00:40.760Z,59.90
2019-05-15T12:02:18.883Z,60.00
2019-05-15T12:03:54.532Z,59.90
2019-05-15T12:05:31.252Z,60.00
2019-05-15T12:07:08.721Z,60.20
2019-05-15T12:08:44.730Z,60.40
2019-05-15T12:10:20.786Z,60.60
2019-05-15T12:11:56.678Z,60.80
2019-05-15T12:13:33.541Z,60.90
2019-05-15T12:15:10.411Z,61.00
2019-05-15T12:17:04.699Z,61.10
2019-05-15T12:18:23.925Z,61.00
2019-05-15T12:20:05.660Z,61.20
2019-05-15T12:21:39.610Z,61.10
2019-05-15T12:23:15.010Z,61.30
2019-05-15T12:24:50.902Z,61.10
2019-05-15T12:26:29.200Z,61.30
2019-05-15T12:28:04.747Z,61.40
2019-05-15T12:29:40.688Z,61.60
2019-05-15T12:31:16.615Z,61.60
2019-05-15T12:32:52.513Z,61.50
2019-05-15T12:34:28.987Z,61.40
2019-05-15T12:36:05.061Z,61.40
2019-05-15T12:37:40.957Z,61.60
2019-05-15T12:39:21.815Z,61.60
2019-05-15T13:00:29.829Z,63.10
2019-05-15T13:02:05.293Z,62.40
2019-05-15T13:03:41.201Z,62.50
2019-05-15T13:05:19.239Z,62.60
2019-05-15T13:07:11.529Z,62.70
2019-05-15T13:08:32.568Z,62.80
2019-05-15T13:10:10.833Z,62.80
2019-05-15T13:11:48.488Z,62.90
2019-05-15T13:13:25.623Z,63.00
2019-05-15T13:15:02.382Z,63.20
2019-05-15T13:16:39.011Z,63.00
2019-05-15T13:18:15.356Z,63.00
2019-05-15T13:19:51.235Z,63.00
2019-05-15T13:21:29.464Z,63.00
2019-05-15T13:23:04.740Z,63.10
2019-05-15T13:24:40.655Z,63.20
2019-05-15T13:26:23.779Z,63.20
2019-05-15T13:27:54.165Z,63.50
2019-05-15T13:29:30.056Z,62.40
2019-05-15T13:31:06.013Z,63.40
2019-05-15T13:32:41.915Z,63.30
2019-05-15T13:34:19.615Z,63.20
2019-05-15T13:35:58.166Z,63.30
2019-05-15T13:37:33.037Z,63.40
2019-05-15T13:39:09.099Z,63.40
2019-05-15T13:40:45.264Z,63.40
2019-05-15T13:42:21.155Z,63.50
2019-05-15T13:43:58.381Z,64.30
2019-05-15T13:45:34.410Z,63.60
2019-05-15T13:47:10.354Z,63.50
2019-05-15T13:48:48.833Z,63.40
2019-05-15T13:50:23.947Z,63.50
2019-05-15T13:51:59.962Z,63.30
2019-05-15T13:53:38.496Z,63.50
2019-05-15T13:55:13.577Z,63.50
2019-05-15T13:56:49.555Z,63.50
2019-05-15T13:58:28.051Z,63.70
2019-05-15T14:00:03.342Z,63.80
2019-05-15T14:01:39.608Z,63.90
2019-05-15T14:03:15.499Z,63.80
2019-05-15T14:04:51.397Z,64.00
2019-05-15T14:06:28.623Z,64.20
2019-05-15T14:08:05.151Z,64.10
2019-05-15T14:09:44.294Z,64.20
2019-05-15T14:11:21.888Z,64.30
2019-05-15T14:12:58.284Z,64.20
2019-05-15T14:14:33.885Z,64.40
2019-05-15T14:16:10.031Z,64.50
2019-05-15T14:17:48.170Z,64.60
2019-05-15T14:19:24.536Z,64.40
2019-05-15T14:21:00.423Z,64.40
2019-05-15T14:22:38.665Z,64.30
2019-05-15T14:24:13.935Z,64.30
2019-05-15T14:25:50.117Z,64.30
2019-05-15T14:27:28.748Z,64.10
2019-05-15T14:29:05.676Z,64.00
2019-05-15T14:30:41.548Z,64.00
2019-05-15T14:32:32.820Z,63.80
2019-05-15T14:33:57.924Z,63.90
2019-05-15T14:35:33.350Z,63.90
2019-05-15T14:37:10.372Z,63.80
2019-05-15T14:38:48.412Z,63.80
2019-05-15T14:40:23.836Z,63.80
2019-05-15T14:41:59.721Z,63.80
2019-05-15T14:43:35.612Z,63.70
2019-05-15T14:45:13.325Z,63.70
2019-05-15T14:46:50.847Z,63.70
2019-05-15T14:48:28.154Z,63.70
2019-05-15T14:50:05.403Z,63.70
2019-05-15T14:51:41.281Z,63.60
2019-05-15T14:53:18.672Z,63.50
2019-05-15T14:54:55.017Z,63.50
2019-05-15T14:56:31.165Z,63.50
2019-05-15T14:58:08.316Z,63.70
2019-05-15T14:59:44.353Z,63.60
2019-05-15T15:01:20.257Z,63.80
2019-05-15T15:02:58.668Z,63.70
2019-05-15T15:04:33.734Z,63.70
2019-05-15T15:06:10.440Z,63.80
2019-05-15T15:07:49.138Z,63.80
2019-05-15T15:09:25.137Z,63.70
2019-05-15T15:11:01.215Z,64.50
2019-05-15T15:12:39.788Z,63.90
2019-05-15T15:14:17.903Z,63.90
2019-05-15T15:15:53.561Z,63.90
2019-05-15T15:17:29.451Z,64.00
2019-05-15T15:19:05.482Z,63.00
2019-05-15T15:20:42.540Z,64.00
2019-05-15T15:22:18.427Z,64.10
2019-05-15T15:23:54.325Z,64.00
2019-05-15T15:25:30.233Z,64.10
2019-05-15T15:27:08.273Z,64.00
2019-05-15T15:28:44.022Z,64.10
2019-05-15T15:30:21.140Z,64.10
2019-05-15T15:31:58.954Z,64.00
2019-05-15T15:33:35.995Z,64.10
2019-05-15T15:35:14.520Z,64.10
2019-05-15T15:36:50.580Z,64.20
2019-05-15T15:38:38.203Z,64.10
2019-05-15T15:40:10.074Z,64.00
2019-05-15T15:41:48.406Z,63.90
2019-05-15T15:43:23.792Z,63.90
2019-05-15T15:44:59.797Z,63.90
2019-05-15T15:46:35.838Z,63.90
2019-05-15T15:48:12.122Z,63.90
2019-05-15T15:49:48.038Z,64.00
2019-05-15T15:51:24.017Z,64.10
2019-05-15T15:52:59.936Z,64.20
2019-05-15T15:54:35.899Z,64.10
2019-05-15T15:56:11.850Z,64.00
2019-05-15T15:57:48.646Z,64.00
2019-05-15T15:59:24.806Z,64.20
2019-05-15T16:01:02.113Z,64.20
2019-05-15T16:02:41.058Z,64.70
2019-05-15T16:04:15.926Z,64.20
2019-05-15T16:05:52.271Z,64.30
2019-05-15T16:07:28.370Z,64.60
2019-05-15T16:09:08.806Z,64.50
2019-05-15T16:10:44.835Z,64.50
2019-05-15T16:12:20.924Z,64.40
2019-05-15T16:13:58.529Z,64.50
2019-05-15T16:15:34.686Z,64.50
2019-05-15T16:17:11.111Z,64.40
2019-05-15T16:18:49.815Z,64.40
2019-05-15T16:20:28.103Z,64.40
2019-05-15T16:22:03.918Z,64.30
2019-05-15T16:23:42.609Z,64.30
2019-05-15T16:25:18.808Z,64.20
2019-05-15T16:26:54.741Z,64.10
2019-05-15T16:28:30.856Z,64.10
2019-05-15T16:30:08.443Z,64.00
2019-05-15T16:31:44.531Z,63.80
2019-05-15T16:33:20.477Z,63.80
2019-05-15T16:34:58.322Z,63.70
2019-05-15T16:36:34.039Z,63.60
2019-05-15T16:38:11.189Z,63.70
2019-05-15T16:39:48.851Z,63.80
2019-05-15T16:41:24.861Z,63.50
2019-05-15T16:43:00.730Z,63.40
2019-05-15T16:44:38.483Z,63.30
2019-05-15T16:46:14.591Z,63.20
2019-05-15T16:47:50.554Z,63.20
2019-05-15T16:49:28.451Z,63.30
2019-05-15T16:51:04.159Z,63.30
2019-05-15T16:52:41.547Z,63.30
2019-05-15T16:54:18.238Z,63.30
2019-05-15T16:55:54.599Z,63.20
2019-05-15T16:57:38.559Z,63.20
2019-05-15T16:59:15.097Z,63.20
2019-05-15T17:00:50.796Z,63.10
2019-05-15T17:02:28.222Z,63.10
2019-05-15T17:04:03.964Z,63.10
2019-05-15T17:05:40.429Z,63.10
2019-05-15T17:07:18.080Z,63.10
2019-05-15T17:08:54.052Z,63.10
2019-05-15T17:10:29.629Z,63.00
2019-05-15T17:12:08.573Z,62.90
2019-05-15T17:13:43.338Z,62.90
2019-05-15T17:15:19.946Z,62.90
2019-05-15T17:16:58.433Z,63.00
2019-05-15T17:18:33.824Z,62.90
2019-05-15T17:20:10.318Z,62.90
2019-05-15T17:21:48.165Z,63.10
2019-05-15T17:23:24.120Z,63.20
2019-05-15T17:25:01.011Z,63.20
2019-05-15T17:26:36.563Z,63.40
2019-05-15T17:28:12.900Z,63.50
2019-05-15T17:29:49.170Z,63.40
2019-05-15T17:31:25.487Z,63.60
2019-05-15T17:33:01.119Z,63.50
2019-05-15T17:34:38.075Z,63.50
2019-05-15T17:36:13.835Z,63.70
2019-05-15T17:37:50.203Z,63.60
2019-05-15T17:39:34.575Z,63.60
2019-05-15T17:41:04.882Z,63.60
2019-05-15T17:42:40.444Z,63.70
2019-05-15T17:44:16.878Z,63.70
2019-05-15T17:45:52.560Z,63.60
2019-05-15T17:47:28.895Z,63.70
2019-05-15T17:49:08.711Z,63.70
2019-05-15T17:50:48.610Z,63.70
2019-05-15T17:52:20.189Z,63.80
2019-05-15T17:53:58.267Z,63.90
2019-05-15T17:55:33.972Z,63.80
2019-05-15T17:57:10.329Z,63.90
2019-05-15T17:58:45.891Z,63.80
2019-05-15T18:00:22.469Z,63.80
2019-05-15T18:01:59.508Z,63.80
2019-05-15T18:03:35.999Z,63.70
2019-05-15T18:05:13.579Z,63.80
2019-05-15T18:06:49.994Z,63.80
2019-05-15T18:08:28.481Z,63.70
2019-05-15T18:10:08.425Z,63.60
2019-05-15T18:11:44.663Z,63.70
2019-05-15T18:13:24.058Z,63.70
2019-05-15T18:14:59.593Z,63.90
2019-05-15T18:16:38.494Z,63.90
2019-05-15T18:18:14.500Z,63.90
2019-05-15T18:19:51.055Z,64.00
2019-05-15T18:21:28.892Z,64.00
2019-05-15T18:23:08.439Z,64.00
2019-05-15T18:24:44.365Z,64.00
2019-05-15T18:26:20.868Z,64.20
2019-05-15T18:27:59.061Z,64.20
2019-05-15T18:29:35.329Z,64.20
2019-05-15T18:31:11.179Z,64.30
2019-05-15T18:32:49.006Z,64.30
2019-05-15T18:34:25.838Z,64.30
2019-05-15T18:36:02.321Z,64.30
2019-05-15T18:37:39.287Z,64.30
2019-05-15T18:39:16.310Z,64.30
2019-05-15T18:40:52.017Z,64.30
2019-05-15T18:42:29.472Z,64.30
2019-05-15T18:44:05.256Z,64.50
2019-05-15T18:45:43.510Z,64.50
2019-05-15T18:47:23.750Z,64.50
2019-05-15T18:49:05.140Z,64.50
2019-05-15T18:50:52.985Z,64.60
2019-05-15T18:52:30.911Z,64.50
2019-05-15T18:54:08.157Z,64.70
2019-05-15T18:55:45.119Z,64.70
2019-05-15T18:57:20.770Z,64.70
2019-05-15T18:58:57.922Z,64.70
2019-05-15T19:00:36.101Z,64.70
2019-05-15T19:02:11.933Z,64.70
2019-05-15T19:03:47.598Z,64.90
2019-05-15T19:05:24.424Z,65.00
2019-05-15T19:07:00.059Z,65.10
2019-05-15T19:08:38.600Z,65.00
2019-05-15T19:10:19.480Z,65.10
2019-05-15T19:11:58.036Z,65.10
2019-05-15T19:13:33.193Z,65.20
2019-05-15T19:15:11.521Z,65.20
2019-05-15T19:16:48.495Z,65.30
2019-05-15T19:18:28.059Z,65.20
2019-05-15T19:20:04.856Z,65.40
2019-05-15T19:21:41.713Z,65.50
2019-05-15T19:23:18.193Z,65.60
2019-05-15T19:24:54.849Z,65.60
2019-05-15T19:26:30.834Z,65.70
2019-05-15T19:28:08.401Z,65.80
2019-05-15T19:29:44.218Z,65.80
2019-05-15T19:31:26.211Z,66.70
2019-05-15T19:32:58.715Z,66.00
2019-05-15T19:34:35.251Z,66.00
2019-05-15T19:36:11.130Z,66.20
2019-05-15T19:37:48.907Z,66.30
2019-05-15T19:39:27.893Z,66.20
2019-05-15T19:41:06.539Z,66.30
2019-05-15T19:42:41.450Z,66.50
2019-05-15T19:44:18.733Z,66.50
2019-05-15T19:45:58.498Z,66.60
2019-05-15T19:47:35.270Z,66.60
2019-05-15T19:49:10.832Z,66.60
2019-05-15T19:50:48.145Z,66.70
2019-05-15T19:52:23.771Z,66.70
2019-05-15T19:54:00.676Z,66.80
2019-05-15T19:55:36.316Z,66.80
2019-05-15T19:57:12.858Z,66.80
2019-05-15T19:58:51.080Z,67.00
2019-05-15T20:00:28.478Z,67.30
2019-05-15T20:02:04.454Z,67.20
2019-05-15T20:03:49.696Z,67.30
2019-05-15T20:05:18.945Z,67.40
2019-05-15T20:06:55.736Z,67.40
2019-05-15T20:08:32.364Z,67.50
2019-05-15T20:10:10.071Z,67.40
2019-05-15T20:11:47.878Z,67.40
2019-05-15T20:13:24.196Z,67.50
2019-05-15T20:14:59.920Z,67.70
2019-05-15T20:16:38.685Z,68.40
2019-05-15T20:18:13.453Z,67.60
2019-05-15T20:19:49.846Z,67.80
2019-05-15T20:21:25.634Z,67.50
2019-05-15T20:23:02.154Z,67.40
2019-05-15T20:24:38.197Z,67.40
2019-05-15T20:26:14.702Z,67.50
2019-05-15T20:27:51.469Z,67.60
2019-05-15T20:29:28.968Z,67.60
2019-05-15T20:31:04.580Z,67.60
2019-05-15T20:32:40.998Z,67.50
2019-05-15T20:34:16.579Z,67.50
2019-05-15T20:35:52.922Z,67.60
2019-05-15T20:37:29.009Z,67.80
2019-05-15T20:39:08.287Z,67.70
2019-05-15T20:40:44.058Z,67.80
2019-05-15T20:42:20.344Z,67.80
2019-05-15T20:43:58.288Z,67.80
2019-05-15T20:45:34.609Z,67.90
2019-05-15T20:47:10.181Z,68.00
2019-05-15T20:48:48.591Z,68.00
2019-05-15T20:50:24.672Z,68.00
2019-05-15T20:52:02.092Z,67.90
2019-05-15T20:53:38.117Z,67.90
2019-05-15T20:55:14.694Z,67.80
2019-05-15T20:56:52.795Z,68.00
2019-05-15T20:58:29.351Z,67.90
2019-05-15T21:00:08.143Z,67.90
2019-05-15T21:01:48.278Z,67.90
2019-05-15T21:03:23.516Z,67.80
2019-05-15T21:05:00.670Z,67.80
2019-05-15T21:06:38.727Z,67.90